SXMKU LGEL-LGEL

Flight info

Callsign SXMKU
Flight time N/A
Altitude 7000
Route DCT
Aircraft PA28/L-SDGRY/S

Departure

Time 2026-05-07 13:07
Airport Elefsis Air Base (LGEL)

Arrival

Time N/A
Airport Elefsis Air Base (LGEL)
Time Latitude Longitude Altitude Speed Heading
2026-05-07 12:55 38.06748 23.55012 84 ft 0 kts 358°
2026-05-07 13:01 38.06762 23.55023 88 ft 5 kts 71°
2026-05-07 13:01 38.06765 23.55080 85 ft 8 kts 89°
2026-05-07 13:02 38.06780 23.55145 87 ft 8 kts 10°
2026-05-07 13:02 38.06829 23.55144 87 ft 7 kts 359°
2026-05-07 13:02 38.06873 23.55142 89 ft 6 kts 358°
2026-05-07 13:02 38.06924 23.55142 91 ft 8 kts 13°
2026-05-07 13:03 38.06983 23.55170 94 ft 10 kts 19°
2026-05-07 13:03 38.07041 23.55200 96 ft 9 kts 19°
2026-05-07 13:03 38.07096 23.55229 98 ft 9 kts 28°
2026-05-07 13:03 38.07155 23.55260 100 ft 11 kts 27°
2026-05-07 13:04 38.07174 23.55301 102 ft 2 kts 100°
2026-05-07 13:04 38.07153 23.55351 101 ft 11 kts 121°
2026-05-07 13:04 38.07111 23.55441 99 ft 12 kts 122°
2026-05-07 13:04 38.07070 23.55533 100 ft 10 kts 118°
2026-05-07 13:05 38.07068 23.55538 100 ft 0 kts 118°
2026-05-07 13:05 38.07061 23.55553 100 ft 8 kts 121°
2026-05-07 13:05 38.06994 23.55601 98 ft 17 kts 168°
2026-05-07 13:06 38.06721 23.55605 90 ft 68 kts 180°
2026-05-07 13:06 38.06182 23.55606 276 ft 85 kts 180°
2026-05-07 13:06 38.05536 23.55619 512 ft 101 kts 178°
2026-05-07 13:06 38.04789 23.55630 679 ft 111 kts 179°
2026-05-07 13:07 38.04011 23.55658 870 ft 112 kts 179°
2026-05-07 13:07 38.03235 23.55852 1140 ft 114 kts 162°
2026-05-07 13:07 38.02582 23.56349 1508 ft 107 kts 147°
2026-05-07 13:07 38.01993 23.56896 1887 ft 103 kts 147°
2026-05-07 13:08 38.01428 23.57480 2189 ft 107 kts 141°
2026-05-07 13:08 38.00870 23.58119 2483 ft 109 kts 141°
2026-05-07 13:08 38.00278 23.58787 2656 ft 119 kts 140°
2026-05-07 13:08 37.99628 23.59475 2831 ft 123 kts 143°
2026-05-07 13:09 37.98941 23.60146 2992 ft 126 kts 144°
2026-05-07 13:09 37.98248 23.60840 3206 ft 133 kts 141°
2026-05-07 13:09 37.97650 23.61816 3152 ft 150 kts 107°
2026-05-07 13:09 37.97312 23.63036 3155 ft 149 kts 130°
2026-05-07 13:10 37.96591 23.63985 3190 ft 151 kts 136°
2026-05-07 13:10 37.95845 23.64929 3192 ft 152 kts 136°
2026-05-07 13:10 37.95097 23.65873 3201 ft 153 kts 137°
2026-05-07 13:10 37.94325 23.66789 3191 ft 152 kts 148°
2026-05-07 13:11 37.93306 23.66925 3184 ft 150 kts 192°
2026-05-07 13:11 37.92297 23.66624 3190 ft 149 kts 194°
2026-05-07 13:11 37.91295 23.66321 3260 ft 144 kts 194°
2026-05-07 13:11 37.90443 23.65759 3446 ft 136 kts 218°
2026-05-07 13:12 37.89753 23.64990 3680 ft 129 kts 221°
2026-05-07 13:12 37.89098 23.64250 3916 ft 124 kts 222°
2026-05-07 13:12 37.88459 23.63538 4156 ft 121 kts 222°
2026-05-07 13:12 37.87832 23.62855 4398 ft 117 kts 221°
2026-05-07 13:13 37.87214 23.62194 4640 ft 116 kts 221°
2026-05-07 13:13 37.86608 23.61541 4882 ft 114 kts 222°
2026-05-07 13:13 37.86007 23.60898 5108 ft 114 kts 221°
2026-05-07 13:13 37.85357 23.60210 5131 ft 129 kts 221°
2026-05-07 13:14 37.84650 23.59447 5136 ft 136 kts 221°
2026-05-07 13:14 37.83932 23.58674 5134 ft 135 kts 221°
2026-05-07 13:14 37.83212 23.57917 5134 ft 135 kts 221°
2026-05-07 13:14 37.82504 23.57164 5134 ft 134 kts 221°
2026-05-07 13:15 37.81816 23.56374 5131 ft 133 kts 232°
2026-05-07 13:15 37.81288 23.55419 5131 ft 132 kts 237°
2026-05-07 13:15 37.80778 23.54457 5132 ft 132 kts 237°
2026-05-07 13:15 37.80270 23.53493 5132 ft 132 kts 237°
2026-05-07 13:16 37.79760 23.52528 5132 ft 132 kts 237°
2026-05-07 13:16 37.79250 23.51564 5133 ft 132 kts 237°
2026-05-07 13:16 37.78739 23.50591 5131 ft 133 kts 237°
2026-05-07 13:16 37.78320 23.49548 5128 ft 133 kts 247°
2026-05-07 13:17 37.77958 23.48467 5127 ft 134 kts 247°
2026-05-07 13:17 37.77594 23.47385 5129 ft 133 kts 247°
2026-05-07 13:17 37.77232 23.46305 5130 ft 134 kts 247°
2026-05-07 13:17 37.76867 23.45222 5124 ft 134 kts 245°
2026-05-07 13:18 37.76140 23.44557 5109 ft 139 kts 188°
2026-05-07 13:18 37.75277 23.45053 5109 ft 146 kts 131°
2026-05-07 13:18 37.74833 23.46180 5111 ft 143 kts 104°
2026-05-07 13:18 37.75109 23.47342 5105 ft 144 kts 44°
2026-05-07 13:19 37.76021 23.47632 5114 ft 140 kts 343°
2026-05-07 13:19 37.76654 23.46799 5114 ft 136 kts 282°
2026-05-07 13:19 37.76632 23.45616 5120 ft 136 kts 275°
2026-05-07 13:19 37.76917 23.44471 5120 ft 137 kts 296°
2026-05-07 13:20 37.77433 23.43464 5122 ft 136 kts 301°
2026-05-07 13:20 37.77950 23.42466 5124 ft 136 kts 300°
2026-05-07 13:20 37.78406 23.41419 5125 ft 136 kts 297°
2026-05-07 13:20 37.78854 23.40364 5126 ft 136 kts 297°
2026-05-07 13:21 37.79269 23.39295 5127 ft 135 kts 294°
2026-05-07 13:21 37.79674 23.38220 5126 ft 135 kts 295°
2026-05-07 13:21 37.80078 23.37144 5126 ft 136 kts 295°
2026-05-07 13:21 37.80482 23.36059 5123 ft 136 kts 294°
2026-05-07 13:22 37.80886 23.34977 5125 ft 136 kts 295°
2026-05-07 13:22 37.81293 23.33888 5123 ft 137 kts 294°
2026-05-07 13:22 37.81699 23.32804 5124 ft 136 kts 294°
2026-05-07 13:22 37.82110 23.31727 5126 ft 136 kts 295°
2026-05-07 13:23 37.82380 23.31016 5121 ft 136 kts 295°
2026-05-07 13:23 37.82786 23.29941 5121 ft 135 kts 295°
2026-05-07 13:23 37.83191 23.28871 5121 ft 135 kts 295°
2026-05-07 13:23 37.83595 23.27796 5121 ft 135 kts 295°
2026-05-07 13:24 37.83999 23.26720 5119 ft 136 kts 295°
2026-05-07 13:24 37.84403 23.25641 5118 ft 136 kts 295°
2026-05-07 13:24 37.84810 23.24571 5120 ft 134 kts 295°
2026-05-07 13:24 37.85215 23.23503 5114 ft 135 kts 295°
2026-05-07 13:25 37.85622 23.22433 5118 ft 135 kts 295°
2026-05-07 13:25 37.86032 23.21370 5118 ft 134 kts 295°
2026-05-07 13:25 37.86442 23.20310 5118 ft 135 kts 295°
2026-05-07 13:25 37.86853 23.19249 5117 ft 134 kts 295°
2026-05-07 13:26 37.87185 23.18148 5116 ft 134 kts 288°
2026-05-07 13:26 37.87461 23.17020 5116 ft 134 kts 283°
2026-05-07 13:26 37.87681 23.15869 5116 ft 135 kts 283°
2026-05-07 13:26 37.87902 23.14719 5115 ft 134 kts 283°
2026-05-07 13:27 37.88123 23.13569 5080 ft 137 kts 283°
2026-05-07 13:27 37.88365 23.12316 4721 ft 154 kts 283°
2026-05-07 13:27 37.88625 23.10964 4354 ft 161 kts 283°
2026-05-07 13:27 37.88901 23.09577 3986 ft 165 kts 283°
2026-05-07 13:28 37.89202 23.08162 3626 ft 168 kts 283°
2026-05-07 13:28 37.89509 23.06759 3189 ft 156 kts 283°
2026-05-07 13:28 37.89781 23.05545 3102 ft 133 kts 284°
2026-05-07 13:28 37.90078 23.04482 3097 ft 124 kts 288°
2026-05-07 13:29 37.90446 23.03534 3096 ft 117 kts 299°
2026-05-07 13:29 37.90849 23.02661 3094 ft 114 kts 297°
2026-05-07 13:29 37.91248 23.01804 3097 ft 112 kts 298°
2026-05-07 13:29 37.91736 23.01056 3097 ft 111 kts 319°
2026-05-07 13:30 37.92346 23.00421 3101 ft 116 kts 318°